createdAt,value
2017-04-27T00:00:25.750Z,1015.61
2017-04-27T00:01:47.290Z,1015.59
2017-04-27T00:03:09.121Z,1015.58
2017-04-27T00:04:30.954Z,1015.57
2017-04-27T00:05:53.481Z,1015.57
2017-04-27T00:07:15.010Z,1015.53
2017-04-27T00:08:36.822Z,1015.52
2017-04-27T00:09:58.656Z,1015.48
2017-04-27T00:11:21.465Z,1015.52
2017-04-27T00:12:43.283Z,1015.49
2017-04-27T00:14:05.429Z,1015.52
2017-04-27T00:15:27.588Z,1015.48
2017-04-27T00:16:50.009Z,1015.48
2017-04-27T00:18:11.521Z,1015.5
2017-04-27T00:19:33.020Z,1015.48
2017-04-27T00:20:54.839Z,1015.47
2017-04-27T00:22:16.600Z,1015.48
2017-04-27T00:23:38.931Z,1015.45
2017-04-27T00:25:01.095Z,1015.45
2017-04-27T00:26:22.600Z,1015.41
2017-04-27T00:27:44.780Z,1015.41
2017-04-27T00:29:07.246Z,1015.41
2017-04-27T00:30:29.762Z,1015.42
2017-04-27T00:31:51.900Z,1015.39
2017-04-27T00:33:14.120Z,1015.4
2017-04-27T00:34:36.562Z,1015.37
2017-04-27T00:35:58.781Z,1015.38
2017-04-27T00:37:20.612Z,1015.48
2017-04-27T00:38:43.397Z,1015.48
2017-04-27T00:40:04.914Z,1015.4
2017-04-27T00:41:26.817Z,1015.45
2017-04-27T00:42:49.270Z,1015.44
2017-04-27T00:44:12.103Z,1015.49
2017-04-27T00:45:34.240Z,1015.46
2017-04-27T00:46:55.747Z,1015.48
2017-04-27T00:48:16.947Z,1015.46
2017-04-27T00:49:39.646Z,1015.49
2017-04-27T00:51:01.781Z,1015.46
2017-04-27T00:52:22.645Z,1015.47
2017-04-27T00:53:44.190Z,1015.47
2017-04-27T00:55:06.551Z,1015.47
2017-04-27T00:56:28.372Z,1015.45
2017-04-27T00:57:49.971Z,1015.43
2017-04-27T00:59:11.470Z,1015.43
2017-04-27T01:00:34.191Z,1015.44
2017-04-27T01:01:56.360Z,1015.47
2017-04-27T01:03:18.222Z,1015.45
2017-04-27T01:04:40.044Z,1015.41
2017-04-27T01:06:01.905Z,1015.46
2017-04-27T01:07:23.409Z,1015.45
2017-04-27T01:08:44.982Z,1015.47
2017-04-27T01:10:06.835Z,1015.46
2017-04-27T01:11:28.962Z,1015.42
2017-04-27T01:12:51.507Z,1015.41
2017-04-27T01:14:13.003Z,1015.39
2017-04-27T01:15:34.849Z,1015.39
2017-04-27T01:16:57.046Z,1015.4
2017-04-27T01:18:18.869Z,1015.39
2017-04-27T01:19:40.689Z,1015.4
2017-04-27T01:21:02.516Z,1015.38
2017-04-27T01:22:23.963Z,1015.38
2017-04-27T01:23:46.238Z,1015.38
2017-04-27T01:25:08.409Z,1015.41
2017-04-27T01:26:30.560Z,1015.41
2017-04-27T01:27:52.940Z,1015.39
2017-04-27T01:29:14.785Z,1015.45
2017-04-27T01:30:36.359Z,1015.41
2017-04-27T01:31:58.488Z,1015.4
2017-04-27T01:33:20.299Z,1015.45
2017-04-27T01:34:41.830Z,1015.44
2017-04-27T01:36:04.038Z,1015.41
2017-04-27T01:37:26.173Z,1015.42
2017-04-27T01:38:48.335Z,1015.39
2017-04-27T01:40:10.468Z,1015.38
2017-04-27T01:41:32.608Z,1015.36
2017-04-27T01:42:54.558Z,1015.39
2017-04-27T01:44:16.665Z,1015.34
2017-04-27T01:45:38.820Z,1015.35
2017-04-27T01:47:00.350Z,1015.34
2017-04-27T01:48:21.575Z,1015.34
2017-04-27T01:49:43.380Z,1015.37
2017-04-27T01:51:04.888Z,1015.38
2017-04-27T01:52:26.708Z,1015.43
2017-04-27T01:53:48.909Z,1015.39
2017-04-27T01:55:11.727Z,1015.42
2017-04-27T01:56:33.247Z,1015.41
2017-04-27T01:57:55.399Z,1015.35
2017-04-27T01:59:16.599Z,1015.37
2017-04-27T02:00:38.446Z,1015.31
2017-04-27T02:02:00.588Z,1015.39
2017-04-27T02:03:22.402Z,1015.41
2017-04-27T02:04:43.729Z,1015.37
2017-04-27T02:06:05.907Z,1015.4
2017-04-27T02:07:28.048Z,1015.38
2017-04-27T02:08:49.888Z,1015.4
2017-04-27T02:10:12.080Z,1015.38
2017-04-27T02:11:33.509Z,1015.38
2017-04-27T02:12:55.707Z,1015.38
2017-04-27T02:14:17.309Z,1015.38
2017-04-27T02:15:38.870Z,1015.42
2017-04-27T02:17:01.309Z,1015.39
2017-04-27T02:18:22.796Z,1015.37
2017-04-27T02:19:44.638Z,1015.36
2017-04-27T02:21:06.763Z,1015.33
2017-04-27T02:22:28.948Z,1015.36
2017-04-27T02:23:50.763Z,1015.38
2017-04-27T02:25:12.895Z,1015.34
2017-04-27T02:26:34.508Z,1015.31
2017-04-27T02:27:56.568Z,1015.3
2017-04-27T02:29:19.049Z,1015.33
2017-04-27T02:30:41.497Z,1015.33
2017-04-27T02:32:03.010Z,1015.32
2017-04-27T02:33:24.809Z,1015.33
2017-04-27T02:34:46.308Z,1015.31
2017-04-27T02:36:08.168Z,1015.31
2017-04-27T02:37:29.678Z,1015.3
2017-04-27T02:38:52.059Z,1015.28
2017-04-27T02:40:13.878Z,1015.23
2017-04-27T02:41:35.387Z,1015.24
2017-04-27T02:42:56.951Z,1015.24
2017-04-27T02:44:19.061Z,1015.28
2017-04-27T02:45:41.198Z,1015.22
2017-04-27T02:47:03.020Z,1015.23
2017-04-27T02:48:25.157Z,1015.26
2017-04-27T02:49:47.650Z,1015.25
2017-04-27T02:51:09.168Z,1015.21
2017-04-27T02:52:31.329Z,1015.18
2017-04-27T02:53:52.528Z,1015.22
2017-04-27T02:55:14.391Z,1015.2
2017-04-27T02:56:36.248Z,1015.21
2017-04-27T02:57:57.431Z,1015.2
2017-04-27T02:59:19.408Z,1015.2
2017-04-27T03:00:41.650Z,1015.22
2017-04-27T03:02:03.908Z,1015.22
2017-04-27T03:03:25.837Z,1015.23
2017-04-27T03:04:47.658Z,1015.25
2017-04-27T03:06:09.424Z,1015.25
2017-04-27T03:07:30.915Z,1015.21
2017-04-27T03:08:52.132Z,1015.21
2017-04-27T03:10:13.638Z,1015.2
2017-04-27T03:11:35.807Z,1015.24
2017-04-27T03:12:56.998Z,1015.23
2017-04-27T03:14:18.686Z,1015.22
2017-04-27T03:15:40.838Z,1015.23
2017-04-27T03:17:03.271Z,1015.26
2017-04-27T03:18:25.423Z,1015.21
2017-04-27T03:19:47.609Z,1015.19
2017-04-27T03:21:09.731Z,1015.3
2017-04-27T03:22:31.489Z,1015.28
2017-04-27T03:23:53.949Z,1015.25
2017-04-27T03:25:16.100Z,1015.28
2017-04-27T03:26:37.945Z,1015.28
2017-04-27T03:28:00.176Z,1015.32
2017-04-27T03:29:22.338Z,1015.36
2017-04-27T03:30:44.508Z,1015.39
2017-04-27T03:32:06.775Z,1015.38
2017-04-27T03:33:28.594Z,1015.41
2017-04-27T03:34:50.887Z,1015.41
2017-04-27T03:36:12.438Z,1015.44
2017-04-27T03:37:34.567Z,1015.41
2017-04-27T03:38:56.328Z,1015.47
2017-04-27T03:40:17.847Z,1015.42
2017-04-27T03:41:39.670Z,1015.45
2017-04-27T03:43:01.199Z,1015.48
2017-04-27T03:44:23.689Z,1015.5
2017-04-27T03:45:45.831Z,1015.46
2017-04-27T03:47:07.336Z,1015.42
2017-04-27T03:48:29.178Z,1015.45
2017-04-27T03:49:51.686Z,1015.48
2017-04-27T03:51:12.880Z,1015.48
2017-04-27T03:52:35.077Z,1015.53
2017-04-27T03:53:56.898Z,1015.55
2017-04-27T03:55:19.288Z,1015.49
2017-04-27T03:56:41.867Z,1015.48
2017-04-27T03:58:04.128Z,1015.5
2017-04-27T03:59:25.977Z,1015.48
2017-04-27T04:00:48.442Z,1015.47
2017-04-27T04:02:10.267Z,1015.48
2017-04-27T04:03:32.630Z,1015.49
2017-04-27T04:04:54.448Z,1015.46
2017-04-27T04:06:17.244Z,1015.5
2017-04-27T04:07:38.867Z,1015.46
2017-04-27T04:09:00.677Z,1015.48
2017-04-27T04:10:22.186Z,1015.54
2017-04-27T04:11:44.060Z,1015.48
2017-04-27T04:13:06.288Z,1015.5
2017-04-27T04:14:28.152Z,1015.49
2017-04-27T04:15:50.647Z,1015.56
2017-04-27T04:17:13.360Z,1015.52
2017-04-27T04:18:35.488Z,1015.55
2017-04-27T04:19:57.648Z,1015.55
2017-04-27T04:21:19.462Z,1015.56
2017-04-27T04:22:40.906Z,1015.59
2017-04-27T04:24:02.731Z,1015.56
2017-04-27T04:25:25.197Z,1015.56
2017-04-27T04:26:47.024Z,1015.58
2017-04-27T04:28:09.413Z,1015.6
2017-04-27T04:29:31.778Z,1015.58
2017-04-27T04:30:53.278Z,1015.59
2017-04-27T04:32:15.748Z,1015.63
2017-04-27T04:33:37.618Z,1015.61
2017-04-27T04:34:59.459Z,1015.59
2017-04-27T04:36:20.987Z,1015.62
2017-04-27T04:37:42.817Z,1015.61
2017-04-27T04:39:05.206Z,1015.62
2017-04-27T04:40:27.360Z,1015.65
2017-04-27T04:41:49.198Z,1015.69
2017-04-27T04:43:11.068Z,1015.67
2017-04-27T04:44:33.507Z,1015.66
2017-04-27T04:45:55.329Z,1015.69
2017-04-27T04:47:17.467Z,1015.68
2017-04-27T04:48:39.665Z,1015.71
2017-04-27T04:50:02.583Z,1015.74
2017-04-27T04:51:24.727Z,1015.72
2017-04-27T04:52:46.334Z,1015.72
2017-04-27T04:54:08.836Z,1015.69
2017-04-27T04:55:30.908Z,1015.72
2017-04-27T04:56:52.725Z,1015.75
2017-04-27T04:58:14.588Z,1015.66
2017-04-27T04:59:36.808Z,1015.7
2017-04-27T05:00:58.389Z,1015.69
2017-04-27T05:02:20.354Z,1015.67
2017-04-27T05:03:42.189Z,1015.71
2017-04-27T05:05:04.312Z,1015.74
2017-04-27T05:06:26.079Z,1015.75
2017-04-27T05:07:47.880Z,1015.79
2017-04-27T05:09:09.732Z,1015.83
2017-04-27T05:10:31.965Z,1015.8
2017-04-27T05:11:54.419Z,1015.8
2017-04-27T05:13:16.227Z,1015.76
2017-04-27T05:14:38.515Z,1015.78
2017-04-27T05:16:00.649Z,1015.82
2017-04-27T05:17:23.519Z,1015.83
2017-04-27T05:18:45.971Z,1015.86
2017-04-27T05:20:08.453Z,1015.91
2017-04-27T05:21:30.910Z,1015.96
2017-04-27T05:22:53.321Z,1016.05
2017-04-27T05:24:15.458Z,1016.1
2017-04-27T05:25:37.598Z,1016.18
2017-04-27T05:26:59.739Z,1016.14
2017-04-27T05:28:22.269Z,1016.15
2017-04-27T05:29:44.434Z,1016.19
2017-04-27T05:31:06.961Z,1016.19
2017-04-27T05:32:28.775Z,1016.29
2017-04-27T05:33:51.566Z,1016.33
2017-04-27T05:35:13.508Z,1016.31
2017-04-27T05:36:35.708Z,1016.34
2017-04-27T05:37:57.543Z,1016.34
2017-04-27T05:39:19.327Z,1016.43
2017-04-27T05:40:41.469Z,1016.46
2017-04-27T05:42:03.299Z,1016.53
2017-04-27T05:43:25.461Z,1016.52
2017-04-27T05:44:47.608Z,1016.48
2017-04-27T05:46:09.466Z,1016.41
2017-04-27T05:47:31.291Z,1016.51
2017-04-27T05:48:53.448Z,1016.59
2017-04-27T05:50:15.931Z,1016.56
2017-04-27T05:51:38.080Z,1016.48
2017-04-27T05:52:59.599Z,1016.5
2017-04-27T05:54:21.431Z,1016.41
2017-04-27T05:55:43.620Z,1016.57
2017-04-27T05:57:05.770Z,1016.56
2017-04-27T05:58:27.308Z,1016.54
2017-04-27T05:59:48.920Z,1016.54
2017-04-27T06:01:11.439Z,1016.57
2017-04-27T06:02:33.909Z,1016.64
2017-04-27T06:03:55.465Z,1016.61
2017-04-27T06:05:17.743Z,1016.65
2017-04-27T06:06:40.201Z,1016.64
2017-04-27T06:08:02.733Z,1016.68
2017-04-27T06:09:24.909Z,1016.64
2017-04-27T06:10:46.416Z,1016.62
2017-04-27T06:12:08.289Z,1016.77
2017-04-27T06:13:30.277Z,1016.76
2017-04-27T06:14:52.187Z,1016.76
2017-04-27T06:16:13.705Z,1016.82
2017-04-27T06:17:35.910Z,1016.85
2017-04-27T06:18:58.388Z,1016.82
2017-04-27T06:20:20.232Z,1016.83
2017-04-27T06:21:42.704Z,1016.89
2017-04-27T06:23:05.140Z,1016.88
2017-04-27T06:24:27.101Z,1016.88
2017-04-27T06:25:49.300Z,1016.9
2017-04-27T06:27:11.672Z,1016.9
2017-04-27T06:28:33.500Z,1016.93
2017-04-27T06:29:54.726Z,1016.9
2017-04-27T06:31:17.206Z,1016.88
2017-04-27T06:32:39.633Z,1016.86
2017-04-27T06:34:02.051Z,1016.97
2017-04-27T06:35:23.788Z,1016.89
2017-04-27T06:36:45.779Z,1016.82
2017-04-27T06:38:08.304Z,1016.99
2017-04-27T06:39:30.589Z,1017.03
2017-04-27T06:40:53.147Z,1017.01
2017-04-27T06:42:15.409Z,1017.04
2017-04-27T06:43:37.614Z,1017.03
2017-04-27T06:45:00.060Z,1017.05
2017-04-27T06:46:21.936Z,1017.07
2017-04-27T06:47:44.121Z,1017.15
2017-04-27T06:49:05.978Z,1017.14
2017-04-27T06:50:28.231Z,1017.2
2017-04-27T06:51:50.130Z,1017.22
2017-04-27T06:53:12.713Z,1017.25
2017-04-27T06:54:34.289Z,1017.28
2017-04-27T06:55:56.090Z,1017.27
2017-04-27T06:57:18.261Z,1017.24
2017-04-27T06:58:39.800Z,1017.21
2017-04-27T07:00:02.020Z,1016.98
2017-04-27T07:01:24.638Z,1016.96
2017-04-27T07:02:46.538Z,1016.9
2017-04-27T07:04:08.065Z,1016.85
2017-04-27T07:05:30.279Z,1017.21
2017-04-27T07:06:52.138Z,1017.25
2017-04-27T07:08:14.669Z,1017.24
2017-04-27T07:09:36.871Z,1017.26
2017-04-27T07:10:59.109Z,1016.97
2017-04-27T07:12:21.520Z,1016.93
2017-04-27T07:13:43.667Z,1017.26
2017-04-27T07:15:04.870Z,1016.85
2017-04-27T07:16:27.343Z,1016.83
2017-04-27T07:17:49.188Z,1016.81
2017-04-27T07:19:10.811Z,1016.77
2017-04-27T07:20:32.339Z,1016.74
2017-04-27T07:21:53.549Z,1016.81
2017-04-27T07:23:15.732Z,1016.8
2017-04-27T07:24:37.559Z,1016.77
2017-04-27T07:25:59.724Z,1016.8
2017-04-27T07:27:21.887Z,1016.82
2017-04-27T07:28:44.718Z,1016.98
2017-04-27T07:30:06.375Z,1016.82
2017-04-27T07:31:28.216Z,1016.8
2017-04-27T07:32:50.192Z,1016.79
2017-04-27T07:34:12.134Z,1016.76
2017-04-27T07:35:33.888Z,1016.79
2017-04-27T07:36:55.408Z,1017.02
2017-04-27T07:38:17.586Z,1016.81
2017-04-27T07:39:39.777Z,1016.82
2017-04-27T07:41:01.938Z,1016.83
2017-04-27T07:42:24.409Z,1017.12
2017-04-27T07:43:46.907Z,1016.87
2017-04-27T07:45:09.107Z,1017.01
2017-04-27T07:46:30.938Z,1016.84
2017-04-27T07:47:52.775Z,1016.75
2017-04-27T07:49:15.118Z,1016.96
2017-04-27T07:50:37.927Z,1016.99
2017-04-27T07:51:59.489Z,1017.02
2017-04-27T07:53:21.737Z,1016.83
2017-04-27T07:54:43.257Z,1016.91
2017-04-27T07:56:05.839Z,1016.89
2017-04-27T07:57:27.988Z,1016.83
2017-04-27T07:58:50.186Z,1016.78
2017-04-27T08:00:12.129Z,1016.71
2017-04-27T08:01:34.642Z,1016.68
2017-04-27T08:02:56.546Z,1016.67
2017-04-27T08:04:18.728Z,1016.69
2017-04-27T08:05:40.969Z,1016.62
2017-04-27T08:07:03.375Z,1016.6
2017-04-27T08:08:25.844Z,1016.59
2017-04-27T08:09:47.692Z,1016.49
2017-04-27T08:11:09.542Z,1016.55
2017-04-27T08:12:32.298Z,1016.57
2017-04-27T08:13:54.529Z,1016.56
2017-04-27T08:15:15.721Z,1016.51
2017-04-27T08:16:37.926Z,1016.53
2017-04-27T08:18:00.090Z,1016.51
2017-04-27T08:19:22.487Z,1016.54
2017-04-27T08:20:44.067Z,1016.53
2017-04-27T08:22:06.338Z,1016.53
2017-04-27T08:23:28.517Z,1016.55
2017-04-27T08:24:50.690Z,1016.6
2017-04-27T08:26:13.160Z,1016.57
2017-04-27T08:27:34.997Z,1016.59
2017-04-27T08:28:57.196Z,1016.62
2017-04-27T08:30:18.723Z,1016.64
2017-04-27T08:31:41.201Z,1016.61
2017-04-27T08:33:02.723Z,1016.64
2017-04-27T08:34:24.548Z,1016.61
2017-04-27T08:35:45.757Z,1016.63
2017-04-27T08:37:07.965Z,1016.64
2017-04-27T08:38:30.188Z,1016.7
2017-04-27T08:39:52.267Z,1016.78
2017-04-27T08:41:14.227Z,1016.75
2017-04-27T08:42:35.744Z,1016.7
2017-04-27T08:43:57.928Z,1016.64
2017-04-27T08:45:20.740Z,1016.65
2017-04-27T08:46:42.903Z,1016.72
2017-04-27T08:48:05.190Z,1016.71
2017-04-27T08:49:27.724Z,1016.64
2017-04-27T08:50:49.219Z,1016.67
2017-04-27T08:52:11.407Z,1016.65
2017-04-27T08:53:33.900Z,1016.62
2017-04-27T08:54:56.051Z,1016.67
2017-04-27T08:56:18.567Z,1016.67
2017-04-27T08:57:40.418Z,1016.63
2017-04-27T08:59:02.630Z,1016.58
2017-04-27T09:00:24.687Z,1016.59
2017-04-27T09:01:46.847Z,1016.56
2017-04-27T09:03:08.997Z,1016.62
2017-04-27T09:04:31.147Z,1016.57
2017-04-27T09:05:52.659Z,1016.62
2017-04-27T09:07:14.467Z,1016.59
2017-04-27T09:08:36.340Z,1016.63
2017-04-27T09:09:57.865Z,1016.56
2017-04-27T09:11:19.798Z,1016.54
2017-04-27T09:12:41.249Z,1016.6
2017-04-27T09:14:03.295Z,1016.61
2017-04-27T09:15:25.787Z,1016.52
2017-04-27T09:16:48.273Z,1016.46
2017-04-27T09:18:10.837Z,1016.48
2017-04-27T09:19:32.666Z,1016.54
2017-04-27T09:20:55.226Z,1016.58
2017-04-27T09:22:17.487Z,1016.53
2017-04-27T09:23:39.757Z,1016.6
2017-04-27T09:25:01.602Z,1016.52
2017-04-27T09:26:23.773Z,1016.54
2017-04-27T09:27:45.612Z,1016.52
2017-04-27T09:29:08.114Z,1016.48
2017-04-27T09:30:30.618Z,1016.53
2017-04-27T09:31:52.767Z,1016.52
2017-04-27T09:33:14.766Z,1016.5
2017-04-27T09:34:37.615Z,1016.5
2017-04-27T09:35:59.764Z,1016.48
2017-04-27T09:37:21.919Z,1016.5
2017-04-27T09:38:44.586Z,1016.52
2017-04-27T09:40:06.356Z,1016.56
2017-04-27T09:41:28.709Z,1016.59
2017-04-27T09:42:50.552Z,1016.62
2017-04-27T09:44:13.026Z,1016.65
2017-04-27T09:45:35.164Z,1016.61
2017-04-27T09:46:57.152Z,1016.62
2017-04-27T09:48:18.978Z,1016.61
2017-04-27T09:49:41.477Z,1016.62
2017-04-27T09:51:03.673Z,1016.66
2017-04-27T09:52:25.508Z,1016.7
2017-04-27T09:53:47.255Z,1016.68
2017-04-27T09:55:09.098Z,1016.65
2017-04-27T09:56:31.251Z,1016.66
2017-04-27T09:57:53.434Z,1016.69
2017-04-27T09:59:15.610Z,1016.74
2017-04-27T10:00:37.136Z,1016.72
2017-04-27T10:01:59.638Z,1016.78
2017-04-27T10:03:21.787Z,1016.7
2017-04-27T10:04:44.037Z,1016.68
2017-04-27T10:06:06.658Z,1016.61
2017-04-27T10:07:28.969Z,1016.6
2017-04-27T10:08:50.187Z,1016.57
2017-04-27T10:10:12.407Z,1016.6
2017-04-27T10:11:34.227Z,1016.55
2017-04-27T10:12:56.724Z,1016.57
2017-04-27T10:14:19.216Z,1016.59
2017-04-27T10:15:41.049Z,1016.66
2017-04-27T10:17:03.003Z,1016.63
2017-04-27T10:18:25.594Z,1016.7
2017-04-27T10:19:47.819Z,1016.61
2017-04-27T10:21:09.750Z,1016.59
2017-04-27T10:22:31.618Z,1016.6
2017-04-27T10:23:53.796Z,1016.59
2017-04-27T10:25:15.647Z,1016.6
2017-04-27T10:26:37.805Z,1016.58
2017-04-27T10:28:31.341Z,1016.57
2017-04-27T10:29:53.785Z,1016.52
2017-04-27T10:31:15.639Z,1016.49
2017-04-27T10:32:37.805Z,1016.46
2017-04-27T10:33:59.638Z,1016.46
2017-04-27T10:35:21.890Z,1016.43
2017-04-27T10:36:44.048Z,1016.44
2017-04-27T10:38:06.538Z,1016.47
2017-04-27T10:39:28.368Z,1016.52
2017-04-27T10:40:50.215Z,1016.46
2017-04-27T10:42:12.381Z,1016.42
2017-04-27T10:43:34.850Z,1016.43
2017-04-27T10:44:56.558Z,1016.57
2017-04-27T10:46:19.357Z,1016.55
2017-04-27T10:47:41.845Z,1016.5
2017-04-27T10:49:03.411Z,1016.5
2017-04-27T10:50:25.699Z,1016.49
2017-04-27T10:51:48.430Z,1016.43
2017-04-27T10:53:10.670Z,1016.44
2017-04-27T10:54:33.147Z,1016.42
2017-04-27T10:55:54.987Z,1016.46
2017-04-27T10:57:17.175Z,1016.52
2017-04-27T10:58:39.323Z,1016.49
2017-04-27T11:00:01.895Z,1016.5
2017-04-27T11:01:24.349Z,1016.46
2017-04-27T11:02:46.847Z,1016.41
2017-04-27T11:04:08.994Z,1016.4
2017-04-27T11:05:30.828Z,1016.4
2017-04-27T11:06:52.676Z,1016.44
2017-04-27T11:08:14.520Z,1016.41
2017-04-27T11:09:36.748Z,1016.38
2017-04-27T11:10:58.268Z,1016.34
2017-04-27T11:12:20.781Z,1016.3
2017-04-27T11:13:42.963Z,1016.28
2017-04-27T11:15:05.447Z,1016.28
2017-04-27T11:16:27.986Z,1016.26
2017-04-27T11:17:49.285Z,1016.3
2017-04-27T11:19:11.081Z,1016.3
2017-04-27T11:20:33.559Z,1016.32
2017-04-27T11:21:55.439Z,1016.2
2017-04-27T11:23:17.450Z,1016.18
2017-04-27T11:24:46.882Z,1016.17
2017-04-27T11:26:09.081Z,1016.14
2017-04-27T11:27:31.226Z,1016.13
2017-04-27T11:28:53.397Z,1016.12
2017-04-27T11:30:15.618Z,1016.12
2017-04-27T11:31:37.782Z,1016.12
2017-04-27T11:32:59.609Z,1016.1
2017-04-27T11:34:21.471Z,1016.07
2017-04-27T11:35:43.706Z,1016.13
2017-04-27T11:37:05.221Z,1016.1
2017-04-27T11:40:20.373Z,1016.09
2017-04-27T11:41:42.987Z,1016.1
2017-04-27T11:43:05.296Z,1016.02
2017-04-27T11:44:27.158Z,1016.08
2017-04-27T11:45:49.634Z,1016.11
2017-04-27T11:47:12.445Z,1016.08
2017-04-27T11:48:34.677Z,1016.04
2017-04-27T11:49:56.901Z,1016.04
2017-04-27T11:51:19.098Z,1016.05
2017-04-27T11:52:41.058Z,1015.98
2017-04-27T11:54:02.918Z,1016.01
2017-04-27T11:55:25.088Z,1016.01
2017-04-27T11:56:47.256Z,1015.99
2017-04-27T11:58:09.665Z,1016.02
2017-04-27T11:59:32.192Z,1015.97
2017-04-27T12:00:54.376Z,1016.05
2017-04-27T12:02:16.035Z,1016.08
2017-04-27T12:03:38.567Z,1016.08
2017-04-27T12:05:00.746Z,1016.09
2017-04-27T12:06:22.987Z,1016.12
2017-04-27T12:07:45.028Z,1016.15
2017-04-27T12:09:07.628Z,1016.21
2017-04-27T12:10:29.789Z,1016.16
2017-04-27T12:11:51.967Z,1016.21
2017-04-27T12:13:13.487Z,1016.21
2017-04-27T12:14:35.699Z,1016.22
2017-04-27T12:15:58.197Z,1016.2
2017-04-27T12:17:20.376Z,1016.24
2017-04-27T12:18:42.218Z,1016.29
2017-04-27T12:20:04.811Z,1016.21
2017-04-27T12:21:27.388Z,1016.35
2017-04-27T12:22:49.587Z,1016.3
2017-04-27T12:24:11.495Z,1016.47
2017-04-27T12:25:33.640Z,1016.32
2017-04-27T12:26:56.106Z,1016.36
2017-04-27T12:28:17.952Z,1016.25
2017-04-27T12:29:40.472Z,1016.39
2017-04-27T12:31:02.984Z,1016.37
2017-04-27T12:32:25.560Z,1016.34
2017-04-27T12:33:47.686Z,1016.32
2017-04-27T12:35:09.873Z,1016.28
2017-04-27T12:36:32.617Z,1016.26
2017-04-27T12:37:55.116Z,1016.24
2017-04-27T12:39:17.692Z,1016.23
2017-04-27T12:40:39.562Z,1016.18
2017-04-27T12:42:02.061Z,1016.15
2017-04-27T12:43:24.737Z,1016.13
2017-04-27T12:44:46.327Z,1016.26
2017-04-27T12:46:08.172Z,1016.14
2017-04-27T12:47:30.363Z,1016.15
2017-04-27T12:48:52.551Z,1016.15
2017-04-27T12:50:14.138Z,1016.14
2017-04-27T12:51:36.307Z,1016.09
2017-04-27T12:52:58.816Z,1016.11
2017-04-27T12:54:20.980Z,1016.08
2017-04-27T12:55:43.467Z,1016.14
2017-04-27T12:57:06.037Z,1016.09
2017-04-27T12:58:28.392Z,1016.11
2017-04-27T12:59:50.559Z,1016.1
2017-04-27T13:01:12.089Z,1016.05
2017-04-27T13:02:34.887Z,1016.02
2017-04-27T13:03:57.651Z,1016.03
2017-04-27T13:05:19.816Z,1016.05
2017-04-27T13:06:41.978Z,1016.02
2017-04-27T13:08:04.151Z,1016.01
2017-04-27T13:09:26.683Z,1016
2017-04-27T13:10:48.531Z,1016.01
2017-04-27T13:12:10.686Z,1015.98
2017-04-27T13:13:32.517Z,1016.05
2017-04-27T13:14:54.709Z,1016.08
2017-04-27T13:16:16.870Z,1016.05
2017-04-27T13:17:39.359Z,1016.08
2017-04-27T13:19:01.517Z,1016.06
2017-04-27T13:20:23.387Z,1016.09
2017-04-27T13:21:45.256Z,1016.08
2017-04-27T13:23:07.733Z,1016.08
2017-04-27T13:24:29.907Z,1016.06
2017-04-27T13:25:52.057Z,1016.06
2017-04-27T13:27:14.559Z,1016.08
2017-04-27T13:28:36.419Z,1016.07
2017-04-27T13:29:58.581Z,1016.06
2017-04-27T13:31:21.054Z,1016.04
2017-04-27T13:32:42.933Z,1016.05
2017-04-27T13:34:05.087Z,1016.06
2017-04-27T13:35:27.237Z,1016.1
2017-04-27T13:36:50.170Z,1016.05
2017-04-27T13:38:12.328Z,1016.07
2017-04-27T13:39:33.860Z,1016.08
2017-04-27T13:40:56.451Z,1016.07
2017-04-27T13:42:19.567Z,1016.03
2017-04-27T13:43:41.724Z,1016.07
2017-04-27T13:45:03.977Z,1016
2017-04-27T13:46:26.158Z,1016.02
2017-04-27T13:47:48.301Z,1016.04
2017-04-27T13:49:10.507Z,1016.03
2017-04-27T13:50:32.679Z,1016.05
2017-04-27T13:51:54.870Z,1016.09
2017-04-27T13:53:17.022Z,1016.1
2017-04-27T13:54:38.870Z,1016.06
2017-04-27T13:56:01.389Z,1016.02
2017-04-27T13:57:22.925Z,1016
2017-04-27T13:58:45.724Z,1016.02
2017-04-27T14:00:07.888Z,1016.03
2017-04-27T14:01:30.052Z,1016.03
2017-04-27T14:02:52.549Z,1016.04
2017-04-27T14:04:15.348Z,1016.03
2017-04-27T14:05:37.534Z,1016
2017-04-27T14:06:59.111Z,1015.99
2017-04-27T14:08:21.589Z,1015.9
2017-04-27T14:09:44.157Z,1015.89
2017-04-27T14:11:05.990Z,1015.86
2017-04-27T14:12:28.208Z,1015.89
2017-04-27T14:13:50.710Z,1015.86
2017-04-27T14:15:13.510Z,1015.83
2017-04-27T14:16:35.701Z,1015.85
2017-04-27T14:17:57.923Z,1015.89
2017-04-27T14:19:20.187Z,1015.86
2017-04-27T14:20:42.610Z,1015.8
2017-04-27T14:22:05.142Z,1015.87
2017-04-27T14:23:27.325Z,1015.9
2017-04-27T14:24:49.517Z,1015.85
2017-04-27T14:26:11.959Z,1015.86
2017-04-27T14:27:34.362Z,1015.83
2017-04-27T14:28:56.630Z,1015.87
2017-04-27T14:30:19.203Z,1015.81
2017-04-27T14:31:41.739Z,1015.88
2017-04-27T14:33:04.370Z,1015.83
2017-04-27T14:34:27.013Z,1015.85
2017-04-27T14:35:49.190Z,1015.83
2017-04-27T14:37:11.408Z,1015.84
2017-04-27T14:38:33.649Z,1015.84
2017-04-27T14:39:56.180Z,1015.75
2017-04-27T14:41:18.370Z,1015.8
2017-04-27T14:42:41.268Z,1015.79
2017-04-27T14:44:03.433Z,1015.8
2017-04-27T14:45:25.979Z,1015.78
2017-04-27T14:46:48.688Z,1015.8
2017-04-27T14:48:11.442Z,1015.8
2017-04-27T14:49:33.540Z,1015.76
2017-04-27T14:50:56.039Z,1015.74
2017-04-27T14:52:18.619Z,1015.78
2017-04-27T14:53:41.379Z,1015.74
2017-04-27T14:55:03.574Z,1015.76
2017-04-27T14:56:26.077Z,1015.76
2017-04-27T14:57:47.975Z,1015.78
2017-04-27T14:59:10.128Z,1015.77
2017-04-27T15:00:31.777Z,1015.76
2017-04-27T15:01:53.947Z,1015.74
2017-04-27T15:03:16.111Z,1015.75
2017-04-27T15:04:39.029Z,1015.7
2017-04-27T15:06:01.512Z,1015.71
2017-04-27T15:07:23.770Z,1015.69
2017-04-27T15:08:46.292Z,1015.65
2017-04-27T15:10:09.027Z,1015.68
2017-04-27T15:11:31.626Z,1015.68
2017-04-27T15:12:54.143Z,1015.68
2017-04-27T15:14:16.706Z,1015.6
2017-04-27T15:15:38.573Z,1015.62
2017-04-27T15:17:00.634Z,1015.61
2017-04-27T15:18:22.189Z,1015.61
2017-04-27T15:19:44.817Z,1015.58
2017-04-27T15:21:07.402Z,1015.58
2017-04-27T15:22:29.567Z,1015.58
2017-04-27T15:23:51.098Z,1015.6
2017-04-27T15:25:13.623Z,1015.59
2017-04-27T15:26:35.830Z,1015.53
2017-04-27T15:27:58.062Z,1015.53
2017-04-27T15:29:19.979Z,1015.58
2017-04-27T15:30:42.458Z,1015.59
2017-04-27T15:32:04.558Z,1015.58
2017-04-27T15:33:27.001Z,1015.59
2017-04-27T15:34:49.592Z,1015.53
2017-04-27T15:36:12.078Z,1015.51
2017-04-27T15:37:34.960Z,1015.49
2017-04-27T15:38:57.439Z,1015.47
2017-04-27T15:40:20.097Z,1015.47
2017-04-27T15:41:42.331Z,1015.5
2017-04-27T15:43:04.843Z,1015.47
2017-04-27T15:44:27.109Z,1015.43
2017-04-27T15:45:49.284Z,1015.43
2017-04-27T15:47:11.748Z,1015.46
2017-04-27T15:48:34.245Z,1015.45
2017-04-27T15:49:56.800Z,1015.45
2017-04-27T15:51:18.964Z,1015.42
2017-04-27T15:52:40.821Z,1015.44
2017-04-27T15:54:03.547Z,1015.39
2017-04-27T15:55:25.097Z,1015.37
2017-04-27T15:56:47.671Z,1015.37
2017-04-27T15:58:10.358Z,1015.34
2017-04-27T15:59:32.577Z,1015.33
2017-04-27T16:00:54.736Z,1015.32
2017-04-27T16:02:16.951Z,1015.33
2017-04-27T16:03:39.129Z,1015.32
2017-04-27T16:05:01.659Z,1015.29
2017-04-27T16:06:23.811Z,1015.36
2017-04-27T16:07:45.715Z,1015.31
2017-04-27T16:09:07.892Z,1015.33
2017-04-27T16:10:30.689Z,1015.36
2017-04-27T16:11:53.206Z,1015.33
2017-04-27T16:13:15.723Z,1015.33
2017-04-27T16:14:38.231Z,1015.32
2017-04-27T16:16:00.412Z,1015.33
2017-04-27T16:17:22.674Z,1015.34
2017-04-27T16:18:44.741Z,1015.32
2017-04-27T16:20:06.617Z,1015.31
2017-04-27T16:21:29.129Z,1015.31
2017-04-27T16:22:51.311Z,1015.29
2017-04-27T16:24:13.507Z,1015.31
2017-04-27T16:25:35.679Z,1015.32
2017-04-27T16:26:58.218Z,1015.27
2017-04-27T16:28:20.709Z,1015.32
2017-04-27T16:29:42.563Z,1015.32
2017-04-27T16:31:05.121Z,1015.35
2017-04-27T16:32:27.946Z,1015.36
2017-04-27T16:33:49.890Z,1015.31
2017-04-27T16:35:12.069Z,1015.31
2017-04-27T16:36:34.643Z,1015.28
2017-04-27T16:37:57.238Z,1015.29
2017-04-27T16:39:19.430Z,1015.29